Time;durP1;ratioP1;P1;durP2;ratioP2;P2;SDS_P1;SDS_P2;PMS_P1;PMS_P2;Temp;Humidity;BMP_temperature;BMP_pressure;BME280_temperature;BME280_humidity;BME280_pressure;Samples;Min_cycle;Max_cycle;Signal;HPM_P1;HPM_P2
2023/03/08 00:00:41;;;;;;;11.25;7.10;;;0.70;99.90;;;;;;5035059;28;20206;-60
2023/03/08 00:03:11;;;;;;;11.15;7.40;;;0.70;99.90;;;;;;5035825;28;20213;-58
2023/03/08 00:05:38;;;;;;;11.70;7.78;;;0.70;99.90;;;;;;5035663;28;20209;-57
2023/03/08 00:08:05;;;;;;;10.48;7.63;;;0.80;99.90;;;;;;5036055;28;20216;-59
2023/03/08 00:10:32;;;;;;;10.55;6.10;;;0.80;99.90;;;;;;5037206;28;20198;-60
2023/03/08 00:12:59;;;;;;;13.55;7.68;;;0.80;99.90;;;;;;5037803;28;20229;-60
2023/03/08 00:15:27;;;;;;;10.07;7.18;;;0.80;99.90;;;;;;5037099;28;20568;-59
2023/03/08 00:17:53;;;;;;;11.10;7.43;;;0.80;99.90;;;;;;5038610;28;20206;-60
2023/03/08 00:20:20;;;;;;;12.50;8.43;;;0.90;99.90;;;;;;5037728;28;20209;-58
2023/03/08 00:22:47;;;;;;;7.72;6.05;;;0.90;99.90;;;;;;5037492;28;20232;-60
2023/03/08 00:25:15;;;;;;;9.73;7.40;;;0.90;99.90;;;;;;5035587;28;20214;-59
2023/03/08 00:27:42;;;;;;;10.80;7.68;;;0.90;99.90;;;;;;5037630;28;20202;-59
2023/03/08 00:30:13;;;;;;;11.75;7.78;;;0.90;99.90;;;;;;5038463;28;20225;-59
2023/03/08 00:32:41;;;;;;;13.25;7.57;;;1.00;99.90;;;;;;5038137;28;20734;-59
2023/03/08 00:35:09;;;;;;;9.10;7.20;;;1.00;99.90;;;;;;5038155;28;20581;-58
2023/03/08 00:37:36;;;;;;;9.80;6.80;;;1.00;99.90;;;;;;5039034;28;20225;-60
2023/03/08 00:40:04;;;;;;;9.15;6.88;;;1.00;99.90;;;;;;5038586;28;20224;-60
2023/03/08 00:42:31;;;;;;;10.50;7.45;;;1.00;99.90;;;;;;5040684;28;20229;-61
2023/03/08 00:44:58;;;;;;;7.57;6.10;;;1.00;99.90;;;;;;5038441;28;20285;-59
2023/03/08 00:47:25;;;;;;;7.35;6.30;;;1.00;99.90;;;;;;5037802;28;20682;-59
2023/03/08 00:49:53;;;;;;;10.75;7.05;;;1.10;99.90;;;;;;5038112;28;20206;-59
2023/03/08 00:52:19;;;;;;;6.50;5.20;;;1.10;99.90;;;;;;5037170;28;20242;-59
2023/03/08 00:54:46;;;;;;;8.20;6.05;;;1.00;99.90;;;;;;5037080;28;20206;-59
2023/03/08 00:57:15;;;;;;;7.32;5.40;;;1.00;99.90;;;;;;5037834;28;20253;-59
2023/03/08 00:59:41;;;;;;;8.02;5.07;;;1.00;99.90;;;;;;5037338;28;20297;-59
2023/03/08 01:02:08;;;;;;;6.95;5.13;;;0.90;99.90;;;;;;5036401;28;20313;-59
2023/03/08 01:04:35;;;;;;;9.23;5.22;;;0.80;99.90;;;;;;5036687;28;20198;-58
2023/03/08 01:07:03;;;;;;;8.43;5.80;;;0.70;99.90;;;;;;5036691;28;20212;-59
2023/03/08 01:09:30;;;;;;;9.05;6.30;;;0.70;99.90;;;;;;5036353;28;20707;-59
2023/03/08 01:11:57;;;;;;;6.95;5.50;;;0.60;99.90;;;;;;5036586;28;20248;-58
2023/03/08 01:14:24;;;;;;;6.75;5.10;;;0.50;99.90;;;;;;5036387;28;20229;-58
2023/03/08 01:16:50;;;;;;;7.15;5.70;;;0.50;99.90;;;;;;5036275;28;20569;-59
2023/03/08 01:19:17;;;;;;;8.27;6.07;;;0.50;99.90;;;;;;5036610;28;20226;-58
2023/03/08 01:21:44;;;;;;;8.57;6.25;;;0.60;99.90;;;;;;5036029;28;20225;-58
2023/03/08 01:24:12;;;;;;;6.65;5.55;;;0.60;99.90;;;;;;5036817;28;20203;-60
2023/03/08 01:26:39;;;;;;;7.35;5.80;;;0.60;99.90;;;;;;5036162;28;20661;-58
2023/03/08 01:29:06;;;;;;;7.03;6.07;;;0.70;99.90;;;;;;5036687;28;20209;-59
2023/03/08 01:31:33;;;;;;;6.38;5.72;;;0.80;99.90;;;;;;5036230;28;20254;-58
2023/03/08 01:33:59;;;;;;;7.43;5.25;;;0.80;99.90;;;;;;5036312;28;20209;-58
2023/03/08 01:36:28;;;;;;;6.40;5.05;;;0.90;99.90;;;;;;5036053;28;20215;-59
2023/03/08 01:38:55;;;;;;;7.90;4.28;;;0.90;99.90;;;;;;5035490;28;20553;-58
2023/03/08 01:41:26;;;;;;;5.90;4.63;;;0.90;99.90;;;;;;5036125;28;20592;-59
2023/03/08 01:43:54;;;;;;;4.60;4.10;;;1.00;99.90;;;;;;5035882;28;20198;-57
2023/03/08 01:46:26;;;;;;;13.77;5.00;;;1.00;99.90;;;;;;5036065;28;20202;-59
2023/03/08 01:48:59;;;;;;;5.13;3.92;;;1.00;99.90;;;;;;5035864;28;20206;-59
2023/03/08 01:51:33;;;;;;;4.32;3.60;;;1.00;99.90;;;;;;5035790;28;20302;-57
2023/03/08 01:54:05;;;;;;;5.50;4.68;;;1.00;99.90;;;;;;5035832;28;20198;-59
2023/03/08 01:56:35;;;;;;;5.35;4.85;;;1.00;99.90;;;;;;5035970;28;20210;-58
2023/03/08 01:59:03;;;;;;;6.32;4.35;;;1.00;99.90;;;;;;5035748;28;20592;-58
2023/03/08 02:01:30;;;;;;;4.88;4.28;;;0.90;99.90;;;;;;5035641;28;20240;-60
2023/03/08 02:03:57;;;;;;;5.88;4.45;;;0.80;99.90;;;;;;5035555;28;20199;-59
2023/03/08 02:06:24;;;;;;;6.28;4.22;;;0.80;99.90;;;;;;5035445;28;20204;-59
2023/03/08 02:08:51;;;;;;;8.00;4.80;;;0.70;99.90;;;;;;5035768;28;20288;-59
2023/03/08 02:11:20;;;;;;;5.60;3.58;;;0.60;99.90;;;;;;5035316;28;20531;-58
2023/03/08 02:13:49;;;;;;;4.72;4.20;;;0.50;99.90;;;;;;5035346;28;20277;-58
2023/03/08 02:16:17;;;;;;;5.05;3.67;;;0.50;99.90;;;;;;5035201;28;20225;-59
2023/03/08 02:18:52;;;;;;;4.85;4.05;;;0.40;99.90;;;;;;5035354;28;20554;-58
2023/03/08 02:21:19;;;;;;;10.75;4.45;;;0.40;99.90;;;;;;5035210;28;20225;-58
2023/03/08 02:23:47;;;;;;;7.38;4.47;;;0.40;99.90;;;;;;5034856;28;20203;-60
2023/03/08 02:26:14;;;;;;;9.50;5.18;;;0.40;99.90;;;;;;5035211;28;20209;-59
2023/03/08 02:28:41;;;;;;;5.15;3.80;;;0.40;99.90;;;;;;5035134;28;20680;-60
2023/03/08 02:31:08;;;;;;;5.65;4.05;;;0.40;99.90;;;;;;5035862;28;20234;-58
2023/03/08 02:33:35;;;;;;;10.50;4.32;;;0.40;99.90;;;;;;5036586;28;20209;-58
2023/03/08 02:36:02;;;;;;;5.80;5.05;;;0.40;99.90;;;;;;5036418;28;20203;-59
2023/03/08 02:38:29;;;;;;;6.80;5.38;;;0.30;99.90;;;;;;5036221;28;20285;-59
2023/03/08 02:40:58;;;;;;;10.80;4.45;;;0.30;99.90;;;;;;5036819;28;20202;-59
2023/03/08 02:43:24;;;;;;;6.90;5.82;;;0.30;99.90;;;;;;5036670;28;20206;-57
2023/03/08 02:45:51;;;;;;;6.10;5.50;;;0.20;99.90;;;;;;5036924;28;20207;-59
2023/03/08 02:48:19;;;;;;;11.38;6.30;;;0.10;99.90;;;;;;5036780;28;20573;-58
2023/03/08 02:50:46;;;;;;;9.57;6.47;;;0.10;99.90;;;;;;5036035;28;20526;-60
2023/03/08 02:53:13;;;;;;;8.95;6.45;;;0.10;99.90;;;;;;5036781;28;20676;-59
2023/03/08 02:55:40;;;;;;;7.18;6.38;;;0.00;99.90;;;;;;5034791;28;20205;-59
2023/03/08 02:58:09;;;;;;;8.65;6.30;;;0.00;99.90;;;;;;5034211;28;20703;-58
2023/03/08 03:00:37;;;;;;;7.50;5.93;;;-0.10;99.90;;;;;;5034629;28;20202;-59
2023/03/08 03:03:04;;;;;;;7.65;6.25;;;-0.10;99.90;;;;;;5061797;22;20241;-59
2023/03/08 03:05:31;;;;;;;11.93;7.00;;;-0.10;99.90;;;;;;5040817;28;20225;-60
2023/03/08 03:07:58;;;;;;;9.75;7.10;;;-0.10;99.90;;;;;;5039137;28;20672;-59
2023/03/08 03:10:25;;;;;;;9.93;7.00;;;-0.20;99.90;;;;;;5041032;28;20205;-60
2023/03/08 03:12:52;;;;;;;11.07;6.60;;;-0.20;99.90;;;;;;5041075;28;20222;-60
2023/03/08 03:15:20;;;;;;;10.18;6.85;;;-0.20;99.90;;;;;;5039223;28;20564;-60
2023/03/08 03:17:47;;;;;;;8.23;6.00;;;-0.30;99.90;;;;;;5042644;28;20214;-60
2023/03/08 03:20:14;;;;;;;7.82;5.78;;;-0.20;99.90;;;;;;5039289;28;20210;-61
2023/03/08 03:22:41;;;;;;;7.88;6.20;;;-0.30;99.90;;;;;;5038236;28;20226;-60
2023/03/08 03:25:09;;;;;;;8.65;6.60;;;-0.20;99.90;;;;;;5038949;28;20229;-60
2023/03/08 03:27:35;;;;;;;8.13;6.50;;;-0.30;99.90;;;;;;5039987;28;20487;-61
2023/03/08 03:30:03;;;;;;;14.43;7.40;;;-0.20;99.90;;;;;;5040182;28;20202;-60
2023/03/08 03:32:31;;;;;;;9.00;6.05;;;-0.20;99.90;;;;;;5036691;28;20703;-60
2023/03/08 03:34:58;;;;;;;8.95;6.43;;;-0.20;99.90;;;;;;5037099;28;20690;-60
2023/03/08 03:37:25;;;;;;;9.32;6.45;;;-0.20;99.90;;;;;;5035981;28;20214;-60
2023/03/08 03:39:51;;;;;;;9.52;6.38;;;-0.20;99.90;;;;;;5036762;28;20210;-60
2023/03/08 03:42:19;;;;;;;9.13;5.80;;;-0.20;99.90;;;;;;5036465;28;20226;-59
2023/03/08 03:44:45;;;;;;;9.82;6.13;;;-0.20;99.90;;;;;;5036228;28;20206;-60
2023/03/08 03:47:12;;;;;;;7.57;6.45;;;-0.20;99.90;;;;;;5036880;28;20198;-60
2023/03/08 03:49:40;;;;;;;8.35;5.75;;;-0.20;99.90;;;;;;5037015;28;20206;-60
2023/03/08 03:52:07;;;;;;;9.88;6.25;;;-0.20;99.90;;;;;;5035698;28;20722;-60
2023/03/08 03:54:34;;;;;;;6.50;4.50;;;-0.10;99.90;;;;;;5035193;28;20210;-58
2023/03/08 03:57:01;;;;;;;9.45;5.72;;;-0.10;99.90;;;;;;5035240;28;20218;-60
2023/03/08 03:59:27;;;;;;;8.65;6.10;;;-0.10;99.90;;;;;;5037760;28;20289;-59
2023/03/08 04:01:54;;;;;;;6.63;5.28;;;-0.20;99.90;;;;;;5035343;28;20230;-59
2023/03/08 04:04:22;;;;;;;8.45;5.90;;;-0.20;99.90;;;;;;5034216;28;20348;-59
2023/03/08 04:06:50;;;;;;;8.27;6.07;;;-0.20;99.90;;;;;;5034925;28;20198;-60
2023/03/08 04:11:22;;;;;;;7.45;5.47;;;-0.20;99.90;;;;;;5092183;27;20955;-60
2023/03/08 04:13:48;;;;;;;10.13;5.97;;;-0.30;99.90;;;;;;5071643;28;20186;-60
2023/03/08 04:16:18;;;;;;;13.30;6.13;;;-0.30;99.90;;;;;;5071092;28;20197;-59
2023/03/08 04:18:45;;;;;;;8.02;6.20;;;-0.30;99.90;;;;;;5071761;28;20197;-58
2023/03/08 04:21:12;;;;;;;6.53;5.53;;;-0.40;99.90;;;;;;5071505;28;20204;-60
2023/03/08 04:23:39;;;;;;;6.57;5.05;;;-0.30;99.90;;;;;;5071818;28;20221;-60
2023/03/08 04:26:06;;;;;;;8.20;5.75;;;-0.30;99.90;;;;;;5071139;28;20201;-60
2023/03/08 04:28:34;;;;;;;7.55;5.03;;;-0.30;99.90;;;;;;5071313;28;20660;-58
2023/03/08 04:31:11;;;;;;;7.53;5.68;;;-0.40;99.90;;;;;;5071932;28;20311;-59
2023/03/08 04:33:38;;;;;;;8.40;5.80;;;-0.40;99.90;;;;;;5071155;28;20220;-59
2023/03/08 04:36:05;;;;;;;10.20;6.78;;;-0.40;99.90;;;;;;5070414;28;20197;-60
2023/03/08 04:38:33;;;;;;;6.75;6.13;;;-0.50;99.90;;;;;;5070962;28;20212;-60
2023/03/08 04:41:04;;;;;;;8.55;5.13;;;-0.50;99.90;;;;;;5071306;28;20254;-60
2023/03/08 04:43:31;;;;;;;7.60;5.90;;;-0.50;99.90;;;;;;5070958;28;20225;-59
2023/03/08 04:46:00;;;;;;;8.52;6.38;;;-0.60;99.90;;;;;;5070852;28;20736;-60
2023/03/08 04:48:27;;;;;;;6.63;5.70;;;-0.60;99.90;;;;;;5071439;28;20201;-60
2023/03/08 04:50:54;;;;;;;10.48;6.10;;;-0.60;99.90;;;;;;5071221;28;20655;-59
2023/03/08 04:53:21;;;;;;;11.02;7.07;;;-0.50;99.90;;;;;;5070321;28;20225;-60
2023/03/08 04:55:48;;;;;;;8.90;6.65;;;-0.50;99.90;;;;;;5070794;28;20205;-59
2023/03/08 04:58:15;;;;;;;10.15;7.03;;;-0.50;99.90;;;;;;5071056;28;20232;-60
2023/03/08 05:00:42;;;;;;;10.25;7.25;;;-0.50;99.90;;;;;;5072698;28;20199;-60
2023/03/08 05:03:10;;;;;;;9.38;7.53;;;-0.40;99.90;;;;;;5070611;28;20221;-60
2023/03/08 05:05:37;;;;;;;8.25;6.05;;;-0.40;99.90;;;;;;5069835;28;20697;-60
2023/03/08 05:08:04;;;;;;;13.15;7.63;;;-0.30;99.90;;;;;;5069865;28;20573;-59
2023/03/08 05:10:31;;;;;;;9.23;7.45;;;-0.30;99.90;;;;;;5069896;28;20257;-60
2023/03/08 05:12:58;;;;;;;8.98;6.75;;;-0.20;99.90;;;;;;5070509;28;20671;-59
2023/03/08 05:15:25;;;;;;;9.20;6.82;;;-0.10;99.90;;;;;;5070283;28;20201;-60
2023/03/08 05:17:52;;;;;;;9.65;7.28;;;-0.10;99.90;;;;;;5071872;28;20197;-59
2023/03/08 05:20:20;;;;;;;7.80;5.88;;;0.00;99.90;;;;;;5070775;28;20201;-59
2023/03/08 05:22:46;;;;;;;12.65;6.57;;;0.00;99.90;;;;;;5056093;28;20240;-58
2023/03/08 05:25:14;;;;;;;8.73;6.63;;;0.10;99.90;;;;;;5056777;28;20201;-60
2023/03/08 05:27:41;;;;;;;8.90;6.80;;;0.10;99.90;;;;;;5056683;28;20229;-59
2023/03/08 05:30:09;;;;;;;8.52;5.75;;;0.10;99.90;;;;;;5056473;28;20221;-58
2023/03/08 05:32:35;;;;;;;8.88;6.10;;;0.10;99.90;;;;;;5056280;28;20247;-59
2023/03/08 05:35:02;;;;;;;7.57;5.38;;;0.00;99.90;;;;;;5056507;28;20209;-59
2023/03/08 05:37:30;;;;;;;9.38;5.95;;;0.00;99.90;;;;;;5056197;28;20202;-59
2023/03/08 05:39:57;;;;;;;7.47;6.22;;;-0.10;99.90;;;;;;5055948;28;20201;-59
2023/03/08 05:42:24;;;;;;;7.65;5.38;;;-0.10;99.90;;;;;;5056399;28;20229;-59
2023/03/08 05:44:50;;;;;;;8.45;6.20;;;-0.10;99.90;;;;;;5056447;28;20202;-61
2023/03/08 05:47:17;;;;;;;8.70;5.95;;;-0.20;99.90;;;;;;5056330;28;20210;-59
2023/03/08 05:49:44;;;;;;;8.40;5.30;;;-0.20;99.90;;;;;;5056635;28;20213;-59
2023/03/08 05:52:11;;;;;;;9.70;5.90;;;-0.20;99.90;;;;;;5057391;28;20233;-59
2023/03/08 05:54:39;;;;;;;9.13;5.65;;;-0.20;99.90;;;;;;5059220;28;20248;-58
2023/03/08 05:57:06;;;;;;;7.15;4.97;;;-0.30;99.90;;;;;;5060102;28;20259;-60
2023/03/08 05:59:33;;;;;;;8.05;5.60;;;-0.30;99.90;;;;;;5058944;28;20204;-59
2023/03/08 06:01:59;;;;;;;9.07;5.10;;;-0.30;99.90;;;;;;5056494;28;20225;-59
2023/03/08 06:04:26;;;;;;;9.38;6.35;;;-0.30;99.90;;;;;;5057207;28;20209;-58
2023/03/08 06:06:53;;;;;;;9.18;5.30;;;-0.30;99.90;;;;;;5062665;28;20198;-60
2023/03/08 06:09:19;;;;;;;7.43;5.38;;;-0.30;99.90;;;;;;5058349;28;20209;-60
2023/03/08 06:11:48;;;;;;;7.93;6.07;;;-0.30;99.90;;;;;;5064960;28;20233;-59
2023/03/08 06:14:14;;;;;;;8.20;6.15;;;-0.30;99.90;;;;;;5059595;28;20205;-59
2023/03/08 06:16:41;;;;;;;7.25;4.93;;;-0.20;99.90;;;;;;5062005;28;20208;-60
2023/03/08 06:19:08;;;;;;;10.60;6.15;;;-0.20;99.90;;;;;;5064442;28;20559;-61
2023/03/08 06:21:34;;;;;;;9.05;5.88;;;-0.20;99.90;;;;;;5065605;28;20209;-59
2023/03/08 06:24:01;;;;;;;9.88;5.13;;;-0.10;99.90;;;;;;5063931;28;20224;-62
2023/03/08 06:26:28;;;;;;;8.23;5.90;;;-0.10;99.90;;;;;;5077865;28;20283;-59
2023/03/08 06:28:56;;;;;;;12.57;6.63;;;0.00;99.90;;;;;;5070627;28;20274;-60
2023/03/08 06:31:23;;;;;;;9.55;6.30;;;0.10;99.90;;;;;;5066793;28;20308;-59
2023/03/08 06:33:50;;;;;;;7.43;5.68;;;0.20;99.90;;;;;;5063779;28;20197;-60
2023/03/08 06:36:19;;;;;;;10.77;5.85;;;0.30;99.90;;;;;;5065258;28;20206;-61
2023/03/08 06:38:47;;;;;;;12.38;6.30;;;0.40;99.90;;;;;;5063846;28;20198;-60
2023/03/08 06:41:16;;;;;;;8.68;5.88;;;0.50;99.90;;;;;;5061185;28;20197;-60
2023/03/08 06:43:43;;;;;;;7.85;6.13;;;0.60;99.90;;;;;;5076847;28;20221;-60
2023/03/08 06:46:15;;;;;;;10.90;6.55;;;0.60;99.90;;;;;;5071500;28;20202;-60
2023/03/08 06:48:42;;;;;;;9.63;5.78;;;0.70;99.90;;;;;;5056847;28;20197;-61
2023/03/08 06:51:09;;;;;;;8.75;5.45;;;0.80;99.90;;;;;;5055450;28;20333;-59
2023/03/08 06:53:37;;;;;;;12.52;6.35;;;0.80;99.90;;;;;;5056151;28;20225;-60
2023/03/08 06:56:05;;;;;;;7.70;5.45;;;0.90;99.90;;;;;;5056057;28;20593;-61
2023/03/08 06:58:32;;;;;;;11.88;5.93;;;0.90;99.90;;;;;;5057613;28;20240;-61
2023/03/08 07:00:59;;;;;;;6.32;5.25;;;1.00;99.90;;;;;;5053821;28;20198;-61
2023/03/08 07:03:27;;;;;;;8.07;5.95;;;1.00;99.90;;;;;;5040512;28;20314;-62
2023/03/08 07:05:58;;;;;;;8.00;5.10;;;1.10;99.90;;;;;;5054789;28;20197;-62
2023/03/08 07:08:25;;;;;;;7.78;5.70;;;1.10;99.90;;;;;;5042052;28;20201;-60
2023/03/08 07:10:52;;;;;;;10.68;5.75;;;1.20;99.90;;;;;;5055629;28;20229;-60
2023/03/08 07:13:20;;;;;;;5.40;4.28;;;1.20;99.90;;;;;;5055905;28;20221;-60
2023/03/08 07:15:47;;;;;;;9.10;6.60;;;1.20;99.90;;;;;;5056503;28;20229;-61
2023/03/08 07:18:14;;;;;;;10.88;8.45;;;1.30;99.90;;;;;;5055902;28;20213;-61
2023/03/08 07:20:42;;;;;;;7.97;5.75;;;1.40;99.90;;;;;;5056098;28;20202;-60
2023/03/08 07:23:09;;;;;;;6.90;5.47;;;1.40;99.90;;;;;;5055666;28;20224;-60
2023/03/08 07:25:38;;;;;;;8.13;6.28;;;1.50;99.90;;;;;;5055968;28;20201;-60
2023/03/08 07:28:05;;;;;;;10.85;6.60;;;1.60;99.90;;;;;;5055496;28;20561;-61
2023/03/08 07:30:32;;;;;;;9.73;6.53;;;1.60;99.90;;;;;;5055400;28;20217;-60
2023/03/08 07:32:58;;;;;;;7.20;6.10;;;1.60;99.90;;;;;;5055509;28;20229;-61
2023/03/08 07:35:25;;;;;;;8.05;6.13;;;1.70;99.90;;;;;;5056368;28;20566;-61
2023/03/08 07:37:53;;;;;;;8.32;7.18;;;1.70;99.90;;;;;;5055862;28;20205;-61
2023/03/08 07:40:20;;;;;;;15.88;6.75;;;1.80;99.90;;;;;;5056151;28;20198;-61
2023/03/08 07:42:47;;;;;;;9.13;6.47;;;2.00;99.90;;;;;;5055400;28;20232;-61
2023/03/08 07:45:14;;;;;;;11.43;7.65;;;2.10;99.90;;;;;;5055162;28;20201;-61
2023/03/08 07:47:41;;;;;;;10.00;8.80;;;2.20;99.90;;;;;;5055870;28;20212;-61
2023/03/08 07:50:10;;;;;;;10.07;7.60;;;2.30;99.90;;;;;;5054925;28;20323;-61
2023/03/08 07:52:37;;;;;;;9.90;7.07;;;2.40;99.90;;;;;;5055494;28;20587;-60
2023/03/08 07:55:06;;;;;;;9.15;6.70;;;2.50;99.90;;;;;;5054493;28;20208;-60
2023/03/08 07:57:33;;;;;;;15.30;8.38;;;2.50;99.90;;;;;;5054399;28;20206;-60
2023/03/08 08:00:00;;;;;;;11.65;8.65;;;2.60;99.90;;;;;;5054831;28;20523;-61
2023/03/08 08:02:27;;;;;;;11.27;8.27;;;2.60;99.90;;;;;;5055026;28;20228;-60
2023/03/08 08:04:53;;;;;;;11.60;8.90;;;2.70;99.90;;;;;;5055377;28;20202;-61
2023/03/08 08:07:20;;;;;;;13.20;8.93;;;2.80;99.90;;;;;;5054996;28;20205;-60
2023/03/08 08:09:47;;;;;;;10.52;8.63;;;2.90;99.90;;;;;;5056437;28;20215;-60
2023/03/08 08:12:15;;;;;;;11.85;8.90;;;3.00;99.90;;;;;;5056231;28;20252;-61
2023/03/08 08:14:41;;;;;;;14.35;9.80;;;3.10;99.90;;;;;;5055571;28;20215;-61
2023/03/08 08:17:08;;;;;;;10.18;7.60;;;3.10;99.90;;;;;;5054673;28;20562;-62
2023/03/08 08:19:36;;;;;;;14.93;9.43;;;3.10;99.90;;;;;;5055540;28;20206;-62
2023/03/08 08:22:03;;;;;;;10.98;7.65;;;3.20;99.90;;;;;;5055050;28;20217;-61
2023/03/08 08:24:31;;;;;;;10.77;8.13;;;3.20;99.90;;;;;;5055322;28;20205;-61
2023/03/08 08:26:58;;;;;;;14.18;9.13;;;3.30;99.90;;;;;;5055909;28;20209;-62
2023/03/08 08:29:26;;;;;;;11.63;8.00;;;3.30;99.90;;;;;;5057171;28;20201;-61
2023/03/08 08:31:53;;;;;;;12.40;8.35;;;3.30;99.90;;;;;;5055997;28;20225;-61
2023/03/08 08:34:20;;;;;;;10.00;8.07;;;3.20;99.90;;;;;;5054675;28;20675;-59
2023/03/08 08:36:47;;;;;;;14.25;9.20;;;3.10;99.90;;;;;;5053886;28;20205;-61
2023/03/08 08:39:13;;;;;;;13.95;8.90;;;3.00;99.90;;;;;;5053453;28;20239;-60
2023/03/08 08:41:40;;;;;;;14.07;8.75;;;3.10;99.90;;;;;;5053530;28;20233;-61
2023/03/08 08:44:07;;;;;;;10.32;7.60;;;3.20;99.90;;;;;;5053453;28;20222;-61
2023/03/08 08:46:36;;;;;;;14.05;9.10;;;3.30;99.90;;;;;;5053628;28;20237;-60
2023/03/08 08:49:05;;;;;;;11.85;7.47;;;3.40;99.90;;;;;;5053234;28;20679;-61
2023/03/08 08:51:32;;;;;;;13.13;8.70;;;3.30;99.90;;;;;;5057501;28;20213;-60
2023/03/08 08:53:59;;;;;;;13.05;9.48;;;3.30;99.90;;;;;;5059568;28;20202;-60
2023/03/08 08:56:29;;;;;;;17.48;10.45;;;3.30;99.90;;;;;;5060522;28;20216;-59
2023/03/08 08:58:56;;;;;;;12.73;8.65;;;3.40;99.90;;;;;;5061878;28;20205;-60
2023/03/08 09:01:25;;;;;;;14.27;10.13;;;3.50;99.90;;;;;;5059395;28;20209;-61
2023/03/08 09:03:53;;;;;;;12.70;9.52;;;3.60;99.90;;;;;;5080358;22;20229;-62
2023/03/08 09:06:22;;;;;;;16.65;9.85;;;3.70;99.90;;;;;;5038003;28;20198;-63
2023/03/08 09:08:50;;;;;;;11.15;8.65;;;3.80;99.90;;;;;;5038225;28;20209;-63
2023/03/08 09:11:17;;;;;;;15.75;9.32;;;3.90;99.90;;;;;;5036843;28;20255;-63
2023/03/08 09:13:44;;;;;;;14.45;10.48;;;4.10;99.90;;;;;;5036741;28;20222;-62
2023/03/08 09:16:18;;;;;;;13.98;9.68;;;4.20;99.90;;;;;;5036778;28;20206;-63
2023/03/08 09:18:45;;;;;;;13.90;9.07;;;4.20;99.90;;;;;;5037619;28;20186;-62
2023/03/08 09:21:14;;;;;;;12.52;9.43;;;4.30;99.90;;;;;;5040807;28;20202;-63
2023/03/08 09:23:41;;;;;;;20.10;9.60;;;4.30;99.90;;;;;;5039813;28;20218;-63
2023/03/08 09:26:08;;;;;;;17.08;10.25;;;4.20;99.90;;;;;;5037147;28;20202;-62
2023/03/08 09:28:35;;;;;;;13.13;10.02;;;4.10;99.90;;;;;;5036510;28;20209;-64
2023/03/08 09:31:08;;;;;;;21.60;10.40;;;4.10;99.90;;;;;;5036415;28;20222;-63
2023/03/08 09:33:35;;;;;;;13.48;9.68;;;4.10;99.90;;;;;;5036309;28;20226;-62
2023/03/08 09:36:02;;;;;;;16.13;10.55;;;4.30;99.90;;;;;;5036115;28;20210;-64
2023/03/08 09:38:30;;;;;;;17.67;10.88;;;4.30;99.90;;;;;;5035862;28;20205;-62
2023/03/08 09:41:11;;;;;;;20.98;10.68;;;4.40;99.90;;;;;;5036287;28;20198;-62
2023/03/08 09:43:47;;;;;;;17.23;10.70;;;4.50;99.90;;;;;;5035753;28;20226;-62
2023/03/08 09:46:16;;;;;;;16.02;10.00;;;4.60;99.90;;;;;;5036318;28;20210;-63
2023/03/08 09:48:46;;;;;;;13.40;10.00;;;4.80;99.90;;;;;;5035300;28;20240;-63
2023/03/08 09:51:16;;;;;;;20.52;11.60;;;4.90;99.90;;;;;;5035227;28;20218;-63
2023/03/08 09:53:49;;;;;;;21.00;10.80;;;5.00;99.90;;;;;;5036049;28;20233;-62
2023/03/08 09:56:22;;;;;;;14.27;9.23;;;5.10;99.90;;;;;;5034933;28;20502;-63
2023/03/08 09:58:54;;;;;;;12.23;9.18;;;5.20;99.90;;;;;;5034815;28;20189;-63
2023/03/08 10:01:34;;;;;;;16.30;10.80;;;5.20;99.90;;;;;;5035569;28;20183;-63
2023/03/08 10:04:33;;;;;;;14.02;10.13;;;5.30;99.90;;;;;;5036421;28;20229;-63
2023/03/08 10:07:24;;;;;;;15.15;11.18;;;5.40;99.90;;;;;;5036508;28;20209;-63
2023/03/08 10:10:15;;;;;;;14.52;9.25;;;5.40;99.90;;;;;;5036450;28;20187;-64
2023/03/08 10:12:52;;;;;;;10.95;8.85;;;5.50;99.90;;;;;;5036764;28;20655;-64
2023/03/08 10:15:22;;;;;;;15.18;10.15;;;5.50;99.90;;;;;;5036740;28;20655;-63
2023/03/08 10:17:55;;;;;;;14.63;11.45;;;5.50;99.90;;;;;;5036517;28;20199;-65
2023/03/08 10:20:25;;;;;;;15.13;10.18;;;5.50;99.90;;;;;;5036842;28;20201;-63
2023/03/08 10:22:58;;;;;;;13.55;9.48;;;5.60;99.90;;;;;;5036394;28;20290;-62
2023/03/08 10:25:30;;;;;;;14.50;9.80;;;5.60;99.90;;;;;;5035321;28;20203;-62
2023/03/08 10:27:58;;;;;;;11.80;9.63;;;5.60;99.80;;;;;;5036940;28;20245;-64
2023/03/08 10:30:34;;;;;;;20.83;12.43;;;5.60;99.50;;;;;;5037392;28;20209;-63
2023/03/08 10:33:05;;;;;;;17.08;11.40;;;5.60;99.30;;;;;;5041426;28;20284;-64
2023/03/08 10:35:35;;;;;;;16.25;10.93;;;5.50;99.00;;;;;;5036951;28;20293;-64
2023/03/08 10:38:02;;;;;;;15.82;11.27;;;5.60;99.20;;;;;;5037202;28;20596;-64
2023/03/08 10:40:30;;;;;;;15.20;9.95;;;5.70;99.00;;;;;;5036706;28;20202;-64
2023/03/08 10:43:02;;;;;;;16.20;10.32;;;5.80;98.50;;;;;;5035776;28;20223;-63
2023/03/08 10:45:30;;;;;;;19.67;12.45;;;5.80;97.00;;;;;;5036537;28;20199;-62
2023/03/08 10:47:59;;;;;;;15.05;10.07;;;5.80;97.10;;;;;;5035723;28;20209;-63
2023/03/08 10:50:28;;;;;;;16.70;10.60;;;5.80;96.90;;;;;;5036105;28;20245;-63
2023/03/08 10:52:55;;;;;;;11.07;9.68;;;5.70;96.50;;;;;;5036460;28;20555;-63
2023/03/08 10:55:26;;;;;;;12.40;9.40;;;5.70;96.50;;;;;;5035655;28;20198;-64
2023/03/08 10:57:56;;;;;;;13.65;9.90;;;5.70;96.50;;;;;;5034797;28;20207;-64
2023/03/08 11:00:32;;;;;;;14.00;11.15;;;5.80;96.40;;;;;;5034876;28;20210;-64
2023/03/08 11:03:20;;;;;;;16.38;10.98;;;5.90;96.10;;;;;;5034505;28;20225;-62
2023/03/08 11:05:58;;;;;;;13.20;9.98;;;6.00;95.80;;;;;;5028582;28;20692;-63
2023/03/08 11:08:29;;;;;;;14.45;10.32;;;6.10;95.20;;;;;;5034017;28;20679;-63
2023/03/08 11:11:07;;;;;;;14.50;10.45;;;6.30;95.20;;;;;;5034962;28;20186;-64
2023/03/08 11:13:37;;;;;;;15.93;9.10;;;6.30;94.40;;;;;;5035263;28;20239;-62
2023/03/08 11:16:30;;;;;;;11.48;8.88;;;6.40;94.10;;;;;;5034804;28;20219;-64
2023/03/08 11:19:03;;;;;;;16.55;10.95;;;6.50;93.70;;;;;;5034378;28;20190;-64
2023/03/08 11:21:40;;;;;;;15.05;11.45;;;6.60;93.10;;;;;;5034271;28;20637;-63
2023/03/08 11:24:24;;;;;;;12.55;10.10;;;6.60;93.20;;;;;;5034222;28;20235;-63
2023/03/08 11:27:03;;;;;;;13.25;10.02;;;6.60;92.70;;;;;;5034337;28;20197;-62
2023/03/08 11:29:41;;;;;;;11.93;9.68;;;6.60;92.50;;;;;;5034606;28;20190;-64
2023/03/08 11:32:20;;;;;;;10.85;8.85;;;6.60;92.40;;;;;;5034570;28;20658;-63
2023/03/08 11:35:02;;;;;;;14.40;9.57;;;6.60;92.30;;;;;;5034635;28;20222;-62
2023/03/08 11:37:35;;;;;;;12.98;9.85;;;6.50;92.30;;;;;;5033967;28;20186;-63
2023/03/08 11:40:14;;;;;;;13.60;9.10;;;6.50;92.30;;;;;;5033838;28;20386;-64
2023/03/08 11:42:50;;;;;;;15.60;11.88;;;6.50;92.20;;;;;;5033716;28;20192;-63
2023/03/08 11:45:23;;;;;;;13.32;9.73;;;6.40;92.20;;;;;;5033925;28;20212;-63
2023/03/08 11:48:29;;;;;;;17.38;10.40;;;6.30;91.70;;;;;;5034191;28;20206;-64
2023/03/08 11:51:05;;;;;;;14.27;9.95;;;6.30;92.30;;;;;;5034802;28;20233;-63
2023/03/08 11:53:42;;;;;;;14.23;9.60;;;6.40;92.50;;;;;;5034110;28;20226;-63
2023/03/08 11:56:19;;;;;;;14.73;10.32;;;6.50;92.30;;;;;;5034800;28;20197;-64
2023/03/08 11:58:50;;;;;;;13.70;9.77;;;6.70;92.10;;;;;;5034194;28;20583;-63
2023/03/08 12:01:23;;;;;;;11.65;9.23;;;6.80;91.80;;;;;;5035371;28;20253;-63
2023/03/08 12:03:53;;;;;;;13.45;9.32;;;6.90;91.70;;;;;;5034394;28;20237;-64
2023/03/08 12:06:25;;;;;;;9.50;6.20;;;7.00;91.50;;;;;;5033924;28;20683;-63
2023/03/08 12:08:57;;;;;;;12.77;8.55;;;7.00;91.20;;;;;;5033503;28;20627;-65
2023/03/08 12:11:29;;;;;;;11.07;7.85;;;6.90;91.30;;;;;;5034213;28;20286;-63
2023/03/08 12:14:03;;;;;;;8.40;5.78;;;6.80;91.90;;;;;;5034061;28;20723;-62
2023/03/08 12:16:39;;;;;;;7.70;4.40;;;6.70;92.00;;;;;;5035638;28;20193;-63
2023/03/08 12:19:16;;;;;;;5.00;3.65;;;6.50;92.60;;;;;;5034756;28;20313;-62
2023/03/08 12:21:49;;;;;;;5.80;4.20;;;6.40;93.00;;;;;;5034046;28;20274;-64
2023/03/08 12:24:32;;;;;;;7.22;4.50;;;6.40;93.00;;;;;;5034699;28;20232;-63
2023/03/08 12:27:05;;;;;;;12.00;7.95;;;6.50;92.90;;;;;;5038590;28;20215;-62
2023/03/08 12:29:44;;;;;;;23.58;17.50;;;6.50;92.50;;;;;;5037863;28;20193;-63
2023/03/08 12:32:14;;;;;;;37.83;20.85;;;6.50;92.30;;;;;;5035963;28;20301;-62
2023/03/08 12:34:43;;;;;;;22.58;13.43;;;6.60;92.00;;;;;;5037533;28;20223;-63
2023/03/08 12:37:24;;;;;;;30.17;20.17;;;6.60;92.00;;;;;;5037750;28;20203;-63
2023/03/08 12:39:59;;;;;;;28.50;16.75;;;6.70;91.90;;;;;;5038363;28;20198;-63
2023/03/08 12:42:31;;;;;;;14.32;10.05;;;6.70;92.10;;;;;;5037879;28;20594;-63
2023/03/08 12:45:24;;;;;;;9.50;7.82;;;6.60;92.50;;;;;;5037406;28;20595;-63
2023/03/08 12:48:01;;;;;;;7.85;6.75;;;6.40;93.50;;;;;;5034458;28;20198;-63
2023/03/08 12:50:28;;;;;;;8.45;5.90;;;6.30;95.10;;;;;;5037799;28;20188;-63
2023/03/08 12:52:55;;;;;;;8.13;5.68;;;6.20;96.20;;;;;;5037081;28;20224;-63
2023/03/08 12:55:30;;;;;;;7.78;5.30;;;6.20;97.10;;;;;;5037029;28;20212;-65
2023/03/08 12:57:59;;;;;;;6.30;4.85;;;6.10;97.40;;;;;;5038252;28;20203;-64
2023/03/08 13:00:29;;;;;;;9.00;6.32;;;6.00;97.90;;;;;;5037932;28;20202;-63